ascensionuyo
449.2102 TLOS
.0000 TLOS in REX

339.2102 TLOS

UNSTAKED

110.0000 TLOS

STAKED

NET 0.0000 / CPU 0.0000

UNSTAKING

11.84 ms. / 0.16 hr.

CPU 100.00 TLOS

4.36 KB / 0.36 GB

BANDWIDTH 10.00 TLOS

626.74 KB / 4,884.18 KB

MEMORY USAGE 12.83 %
TOKENS
VOTES
Showing 1 to 200 entries
ACTIONS
DATE BLOCK TRX TYPE DATA
2021-11-22T21:42:13.500 185403238 f3fc50... addobs {pressure_hpa=1002.5, longitude_deg=7.974723815917969, elevation2_m=25, launch_id=xm5unkgmpk1y, gps_elevation_m=126, humidity_percent=52.83000183105469, unix_time_s=1637617332, latitude_deg=5.066539764404297, flags=245, temperature_c=32.54999923706055}
2021-11-22T21:41:43.500 185403178 edd7a2... addobs {pressure_hpa=1001.2999877929688, longitude_deg=7.975255966186523, elevation2_m=36, launch_id=xm5unkgmpk1y, gps_elevation_m=136, humidity_percent=52.38999938964844, unix_time_s=1637617302, latitude_deg=5.0663580894470215, flags=253, temperature_c=32.619998931884766}
2021-11-22T21:40:47.000 185403065 f8ac9d... addobs {pressure_hpa=998.7000122070312, longitude_deg=7.976016044616699, elevation2_m=60, launch_id=xm5unkgmpk1y, gps_elevation_m=171, humidity_percent=52.779998779296875, unix_time_s=1637617245, latitude_deg=5.065843105316162, flags=253, temperature_c=33.040000915527344}
2021-11-22T21:40:20.000 185403011 3d9b59... addobs {pressure_hpa=997.0999755859375, longitude_deg=7.976230144500732, elevation2_m=74, launch_id=xm5unkgmpk1y, gps_elevation_m=176, humidity_percent=53.38999938964844, unix_time_s=1637617218, latitude_deg=5.065361976623535, flags=253, temperature_c=33.220001220703125}
2021-11-22T21:39:49.500 185402950 211b87... addobs {pressure_hpa=995.7999877929688, longitude_deg=7.976272106170654, elevation2_m=86, launch_id=xm5unkgmpk1y, gps_elevation_m=181, humidity_percent=52.849998474121094, unix_time_s=1637617188, latitude_deg=5.0646748542785645, flags=253, temperature_c=33.540000915527344}
2021-11-22T21:39:19.500 185402890 0d6424... addobs {pressure_hpa=994.9000244140625, longitude_deg=7.976253986358643, elevation2_m=94, launch_id=xm5unkgmpk1y, gps_elevation_m=196, humidity_percent=51.560001373291016, unix_time_s=1637617158, latitude_deg=5.064050197601318, flags=237, temperature_c=34.209999084472656}
2021-11-22T21:39:01.500 185402854 bdfd50... addobs {pressure_hpa=994.2999877929688, longitude_deg=7.97631311416626, elevation2_m=100, launch_id=xm5unkgmpk1y, gps_elevation_m=198, humidity_percent=52.0099983215332, unix_time_s=1637617140, latitude_deg=5.063304901123047, flags=253, temperature_c=34.22999954223633}
2021-11-22T21:37:25.000 185402661 9b7067... addobs {pressure_hpa=992.7000122070312, longitude_deg=7.97541618347168, elevation2_m=114, launch_id=xm5unkgmpk1y, gps_elevation_m=156, humidity_percent=50.349998474121094, unix_time_s=1637617044, latitude_deg=5.059713840484619, flags=253, temperature_c=34.630001068115234}
2021-11-22T21:36:58.500 185402608 729fd8... addobs {pressure_hpa=992.2999877929688, longitude_deg=7.975050926208496, elevation2_m=117, launch_id=xm5unkgmpk1y, gps_elevation_m=145, humidity_percent=48.7599983215332, unix_time_s=1637617017, latitude_deg=5.058800220489502, flags=253, temperature_c=35.34000015258789}
2021-11-22T21:35:58.500 185402488 3a3a67... addobs {pressure_hpa=992, longitude_deg=7.973931789398193, elevation2_m=120, launch_id=xm5unkgmpk1y, gps_elevation_m=117, humidity_percent=45.849998474121094, unix_time_s=1637616957, latitude_deg=5.056632041931152, flags=253, temperature_c=36.34000015258789}
2021-11-22T21:35:31.000 185402433 94208b... addobs {pressure_hpa=990.9000244140625, longitude_deg=7.973283767700195, elevation2_m=131, launch_id=xm5unkgmpk1y, gps_elevation_m=71, humidity_percent=43.9900016784668, unix_time_s=1637616930, latitude_deg=5.055370807647705, flags=253, temperature_c=37.31999969482422}
2021-11-22T21:35:01.000 185402373 2e5bec... addobs {pressure_hpa=990.5, longitude_deg=7.972637176513672, elevation2_m=134, launch_id=xm5unkgmpk1y, gps_elevation_m=81, humidity_percent=44.04999923706055, unix_time_s=1637616900, latitude_deg=5.05415678024292, flags=253, temperature_c=37.33000183105469}
2021-11-22T21:34:34.000 185402319 49539c... addobs {pressure_hpa=990.5, longitude_deg=7.972005844116211, elevation2_m=134, launch_id=xm5unkgmpk1y, gps_elevation_m=112, humidity_percent=43.5, unix_time_s=1637616873, latitude_deg=5.052591800689697, flags=253, temperature_c=37.52000045776367}
2021-11-22T21:34:04.500 185402260 aa8fba... addobs {pressure_hpa=990.0999755859375, longitude_deg=7.971224784851074, elevation2_m=138, launch_id=xm5unkgmpk1y, gps_elevation_m=169, humidity_percent=43.22999954223633, unix_time_s=1637616843, latitude_deg=5.051135063171387, flags=253, temperature_c=37.709999084472656}
2021-11-22T21:33:34.000 185402199 588899... addobs {pressure_hpa=989.5999755859375, longitude_deg=7.970510005950928, elevation2_m=143, launch_id=xm5unkgmpk1y, gps_elevation_m=243, humidity_percent=42.810001373291016, unix_time_s=1637616813, latitude_deg=5.049682140350342, flags=253, temperature_c=37.790000915527344}
2021-11-22T21:33:07.500 185402146 503a2d... addobs {pressure_hpa=989.0999755859375, longitude_deg=7.969750881195068, elevation2_m=147, launch_id=xm5unkgmpk1y, gps_elevation_m=221, humidity_percent=42.810001373291016, unix_time_s=1637616786, latitude_deg=5.048439025878906, flags=253, temperature_c=37.90999984741211}
2021-11-22T21:32:37.000 185402085 5a1977... addobs {pressure_hpa=988.7999877929688, longitude_deg=7.969139099121094, elevation2_m=150, launch_id=xm5unkgmpk1y, gps_elevation_m=191, humidity_percent=43.18000030517578, unix_time_s=1637616756, latitude_deg=5.046641826629639, flags=253, temperature_c=37.650001525878906}
2021-11-22T21:32:10.000 185402031 03281e... addobs {pressure_hpa=988.5, longitude_deg=7.9677300453186035, elevation2_m=153, launch_id=xm5unkgmpk1y, gps_elevation_m=0, humidity_percent=41.939998626708984, unix_time_s=1637616729, latitude_deg=5.045156002044678, flags=253, temperature_c=38.36000061035156}
2021-11-22T21:31:40.500 185401972 b8a01c... addobs {pressure_hpa=988.9000244140625, longitude_deg=7.966497898101807, elevation2_m=149, launch_id=xm5unkgmpk1y, gps_elevation_m=233, humidity_percent=43.65999984741211, unix_time_s=1637616699, latitude_deg=5.043367862701416, flags=253, temperature_c=37.58000183105469}
2021-11-22T21:31:13.000 185401917 3f8e84... addobs {pressure_hpa=988.5999755859375, longitude_deg=7.9653520584106445, elevation2_m=152, launch_id=xm5unkgmpk1y, gps_elevation_m=0, humidity_percent=44.25, unix_time_s=1637616672, latitude_deg=5.042508125305176, flags=253, temperature_c=37.290000915527344}
2021-11-22T21:30:43.000 185401857 6779d2... addobs {pressure_hpa=987.4000244140625, longitude_deg=7.957054138183594, elevation2_m=163, launch_id=xm5unkgmpk1y, gps_elevation_m=84, humidity_percent=44.349998474121094, unix_time_s=1637616642, latitude_deg=5.026733875274658, flags=245, temperature_c=37.13999938964844}
2021-11-22T21:30:13.500 185401798 663bfd... addobs {pressure_hpa=986.7999877929688, longitude_deg=7.957054138183594, elevation2_m=169, launch_id=xm5unkgmpk1y, gps_elevation_m=84, humidity_percent=43.130001068115234, unix_time_s=1637616612, latitude_deg=5.026733875274658, flags=245, temperature_c=37.7400016784668}
2021-11-22T21:29:46.500 185401744 a898c7... transfer amount: 0.00001 from: ascensionuyo {symbol=KANDA, quantity=0.00001000 KANDA, memo=, to=empatoempata}
2021-11-22T21:29:46.500 185401744 a898c7... transfer amount: 0.1 from: ascensionuyo {symbol=TLOS, quantity=0.1000 TLOS, memo=Reached 986.799988 hpa, to=empatoempata}
2021-11-22T21:29:46.500 185401744 a898c7... addobs {pressure_hpa=986.7999877929688, longitude_deg=7.957054138183594, elevation2_m=169, launch_id=xm5unkgmpk1y, gps_elevation_m=84, humidity_percent=44.720001220703125, unix_time_s=1637616585, latitude_deg=5.026733875274658, flags=245, temperature_c=37.040000915527344}
2021-11-22T21:29:16.000 185401683 b758eb... transfer amount: 0.00005999 from: ascensionuyo {symbol=KANDA, quantity=0.00005999 KANDA, memo=, to=empatoempata}
2021-11-22T21:29:16.000 185401683 b758eb... transfer amount: 0.5999 from: ascensionuyo {symbol=TLOS, quantity=0.5999 TLOS, memo=Reached 987.200012 hpa, to=empatoempata}
2021-11-22T21:29:16.000 185401683 b758eb... addobs {pressure_hpa=987.2000122070312, longitude_deg=7.957054138183594, elevation2_m=165, launch_id=xm5unkgmpk1y, gps_elevation_m=84, humidity_percent=44.349998474121094, unix_time_s=1637616555, latitude_deg=5.026733875274658, flags=229, temperature_c=37.040000915527344}
2021-11-22T21:28:49.000 185401629 e637e0... transfer amount: 0.000055 from: ascensionuyo {symbol=KANDA, quantity=0.00005500 KANDA, memo=, to=empatoempata}
2021-11-22T21:28:49.000 185401629 e637e0... transfer amount: 0.55 from: ascensionuyo {symbol=TLOS, quantity=0.5500 TLOS, memo=Reached 989.599976 hpa, to=empatoempata}
2021-11-22T21:28:49.000 185401629 e637e0... addobs {pressure_hpa=989.5999755859375, longitude_deg=7.957054138183594, elevation2_m=143, launch_id=xm5unkgmpk1y, gps_elevation_m=84, humidity_percent=42.16999816894531, unix_time_s=1637616528, latitude_deg=5.026733875274658, flags=229, temperature_c=38.040000915527344}
2021-11-22T21:28:19.000 185401569 76b803... transfer amount: 0.00003 from: ascensionuyo {symbol=KANDA, quantity=0.00003000 KANDA, memo=, to=empatoempata}
2021-11-22T21:28:19.000 185401569 76b803... transfer amount: 0.3 from: ascensionuyo {symbol=TLOS, quantity=0.3000 TLOS, memo=Reached 991.799988 hpa, to=empatoempata}
2021-11-22T21:28:19.000 185401569 76b803... addobs {pressure_hpa=991.7999877929688, longitude_deg=7.957054138183594, elevation2_m=122, launch_id=xm5unkgmpk1y, gps_elevation_m=84, humidity_percent=41.59000015258789, unix_time_s=1637616498, latitude_deg=5.026733875274658, flags=229, temperature_c=38.34000015258789}
2021-11-22T21:27:49.000 185401509 d41121... transfer amount: 0.00003 from: ascensionuyo {symbol=KANDA, quantity=0.00003000 KANDA, memo=, to=empatoempata}
2021-11-22T21:27:49.000 185401509 d41121... transfer amount: 0.3 from: ascensionuyo {symbol=TLOS, quantity=0.3000 TLOS, memo=Reached 993.000000 hpa, to=empatoempata}
2021-11-22T21:27:49.000 185401509 d41121... addobs {pressure_hpa=993, longitude_deg=7.957054138183594, elevation2_m=111, launch_id=xm5unkgmpk1y, gps_elevation_m=84, humidity_percent=41.04999923706055, unix_time_s=1637616468, latitude_deg=5.026733875274658, flags=229, temperature_c=38.540000915527344}
2021-11-22T21:27:22.000 185401455 46b7f3... transfer amount: 0.00003 from: ascensionuyo {symbol=KANDA, quantity=0.00003000 KANDA, memo=, to=empatoempata}
2021-11-22T21:27:22.000 185401455 46b7f3... transfer amount: 0.3 from: ascensionuyo {symbol=TLOS, quantity=0.3000 TLOS, memo=Reached 994.200012 hpa, to=empatoempata}
2021-11-22T21:27:22.000 185401455 46b7f3... addobs {pressure_hpa=994.2000122070312, longitude_deg=7.957054138183594, elevation2_m=100, launch_id=xm5unkgmpk1y, gps_elevation_m=84, humidity_percent=40.66999816894531, unix_time_s=1637616441, latitude_deg=5.026733875274658, flags=229, temperature_c=38.77000045776367}
2021-11-22T21:26:58.000 185401407 8a1975... transfer amount: 0.00009499 from: ascensionuyo {symbol=KANDA, quantity=0.00009499 KANDA, memo=, to=empatoempata}
2021-11-22T21:26:58.000 185401407 8a1975... transfer amount: 0.9499 from: ascensionuyo {symbol=TLOS, quantity=0.9499 TLOS, memo=Reached 995.400024 hpa, to=empatoempata}
2021-11-22T21:26:58.000 185401407 8a1975... addobs {pressure_hpa=995.4000244140625, longitude_deg=7.957054138183594, elevation2_m=89, launch_id=xm5unkgmpk1y, gps_elevation_m=84, humidity_percent=40.7400016784668, unix_time_s=1637616417, latitude_deg=5.026733875274658, flags=229, temperature_c=38.68000030517578}
2021-11-22T21:25:25.000 185401221 2e385d... transfer amount: 0.0000375 from: ascensionuyo {symbol=KANDA, quantity=0.00003750 KANDA, memo=, to=empatoempata}
2021-11-22T21:25:25.000 185401221 2e385d... transfer amount: 0.375 from: ascensionuyo {symbol=TLOS, quantity=0.3750 TLOS, memo=Reached 999.200012 hpa, to=empatoempata}
2021-11-22T21:25:25.000 185401221 2e385d... addobs {pressure_hpa=999.2000122070312, longitude_deg=7.957054138183594, elevation2_m=54, launch_id=xm5unkgmpk1y, gps_elevation_m=84, humidity_percent=40.2400016784668, unix_time_s=1637616324, latitude_deg=5.026733875274658, flags=229, temperature_c=38.5}
2021-11-22T21:24:58.000 185401167 d1893d... transfer amount: 0.00018249 from: ascensionuyo {symbol=KANDA, quantity=0.00018249 KANDA, memo=, to=empatoempata}
2021-11-22T21:24:58.000 185401167 d1893d... transfer amount: 1.8249 from: ascensionuyo {symbol=TLOS, quantity=1.8249 TLOS, memo=Reached 1000.700012 hpa, to=empatoempata}
2021-11-22T21:24:58.000 185401167 d1893d... addobs {pressure_hpa=1000.7000122070312, longitude_deg=7.957054138183594, elevation2_m=40, launch_id=xm5unkgmpk1y, gps_elevation_m=84, humidity_percent=40.9900016784668, unix_time_s=1637616297, latitude_deg=5.026733875274658, flags=229, temperature_c=37.880001068115234}
2021-11-22T19:58:40.500 185390814 94d75c... websetlaunch {surf_pressure=1008, launch_id=xm5unkgmpk1y, unix_time=1637611119, device_type=Cybaart Kanda v0.3.2, miner=empatoempata, wxcondition=Unknown}
2021-11-22T18:14:37.500 185378343 776558... settimeslots {first_start_time=1637601276}
2021-11-21T23:17:25.500 185242609 bd444b... transfer amount: 200 from: ascensionuyo {symbol=TLOS, quantity=200.0000 TLOS, memo=Nov 21 launch, to=empatoempato}
2021-11-21T11:54:00.500 185160607 1e3725... websetlaunch {surf_pressure=1008, launch_id=d5oqozn1wipt, unix_time=1637495639, device_type=Cybaart Kanda v0.3.2, miner=empatoempata, wxcondition=Unknown}
2021-11-20T19:49:24.000 185044913 ed9995... setstation owner: "Empato, Uyo, Nigeria\t" {elevation=45.099998474121094, reward_increment=0.25, launch_freq_hrs=24, latitude=5.033841133117676, launch_window_hrs=24, missing=-9999, longitude=7.928159236907959}
2021-11-17T18:16:14.000 184515504 024585... settimeslots {first_start_time=1637169373}
2021-11-10T16:27:05.000 183293675 a23ca9... addobs {pressure_hpa=996.9000244140625, longitude_deg=0, elevation2_m=32, launch_id=whmy5biw44s3, gps_elevation_m=0, humidity_percent=32.779998779296875, unix_time_s=1636561624, latitude_deg=0, flags=239, temperature_c=43.77000045776367}
2021-11-10T16:26:54.500 183293654 44eb79... addobs {pressure_hpa=995.7000122070312, longitude_deg=0, elevation2_m=43, launch_id=whmy5biw44s3, gps_elevation_m=0, humidity_percent=32.61000061035156, unix_time_s=1636561614, latitude_deg=0, flags=239, temperature_c=43.90999984741211}
2021-11-10T16:26:44.500 183293634 ada262... addobs {pressure_hpa=995.2000122070312, longitude_deg=0, elevation2_m=48, launch_id=whmy5biw44s3, gps_elevation_m=0, humidity_percent=32.459999084472656, unix_time_s=1636561604, latitude_deg=0, flags=239, temperature_c=43.849998474121094}
2021-11-10T16:26:35.000 183293615 62a141... addobs {pressure_hpa=994.2000122070312, longitude_deg=0, elevation2_m=58, launch_id=whmy5biw44s3, gps_elevation_m=0, humidity_percent=32.58000183105469, unix_time_s=1636561593, latitude_deg=0, flags=239, temperature_c=43.79999923706055}
2021-11-10T16:26:25.000 183293595 e5f9b8... addobs {pressure_hpa=993.0999755859375, longitude_deg=0, elevation2_m=67, launch_id=whmy5biw44s3, gps_elevation_m=0, humidity_percent=32.119998931884766, unix_time_s=1636561583, latitude_deg=0, flags=239, temperature_c=44.040000915527344}
2021-11-10T16:26:15.000 183293575 c83764... addobs {pressure_hpa=992.2000122070312, longitude_deg=0, elevation2_m=77, launch_id=whmy5biw44s3, gps_elevation_m=0, humidity_percent=31.979999542236328, unix_time_s=1636561573, latitude_deg=0, flags=239, temperature_c=44.279998779296875}
2021-11-10T16:26:10.000 183293565 62d974... addobs {pressure_hpa=991.0999755859375, longitude_deg=0, elevation2_m=86, launch_id=whmy5biw44s3, gps_elevation_m=0, humidity_percent=32.849998474121094, unix_time_s=1636561568, latitude_deg=0, flags=239, temperature_c=43.56999969482422}
2021-11-10T16:25:59.500 183293544 d4e1e7... addobs {pressure_hpa=990.2000122070312, longitude_deg=0, elevation2_m=96, launch_id=whmy5biw44s3, gps_elevation_m=0, humidity_percent=32.88999938964844, unix_time_s=1636561558, latitude_deg=0, flags=239, temperature_c=43.38999938964844}
2021-11-10T16:25:49.500 183293524 f34be4... addobs {pressure_hpa=989.5999755859375, longitude_deg=0, elevation2_m=101, launch_id=whmy5biw44s3, gps_elevation_m=0, humidity_percent=32.790000915527344, unix_time_s=1636561548, latitude_deg=0, flags=239, temperature_c=43.400001525878906}
2021-11-10T16:25:39.500 183293504 062326... addobs {pressure_hpa=988.5999755859375, longitude_deg=0, elevation2_m=110, launch_id=whmy5biw44s3, gps_elevation_m=0, humidity_percent=32.2400016784668, unix_time_s=1636561538, latitude_deg=0, flags=239, temperature_c=43.939998626708984}
2021-11-10T16:25:30.000 183293485 4e1c47... addobs {pressure_hpa=987.5, longitude_deg=0, elevation2_m=121, launch_id=whmy5biw44s3, gps_elevation_m=0, humidity_percent=32.209999084472656, unix_time_s=1636561528, latitude_deg=0, flags=239, temperature_c=43.77000045776367}
2021-11-10T16:25:19.500 183293464 d658fd... addobs {pressure_hpa=986.4000244140625, longitude_deg=0, elevation2_m=131, launch_id=whmy5biw44s3, gps_elevation_m=0, humidity_percent=32.43000030517578, unix_time_s=1636561518, latitude_deg=0, flags=239, temperature_c=43.619998931884766}
2021-11-10T16:25:10.000 183293445 378c5b... addobs {pressure_hpa=985.4000244140625, longitude_deg=0, elevation2_m=141, launch_id=whmy5biw44s3, gps_elevation_m=0, humidity_percent=31.790000915527344, unix_time_s=1636561508, latitude_deg=0, flags=239, temperature_c=44.06999969482422}
2021-11-10T16:25:04.500 183293434 7e3f74... addobs {pressure_hpa=984.2000122070312, longitude_deg=0, elevation2_m=152, launch_id=whmy5biw44s3, gps_elevation_m=0, humidity_percent=31.950000762939453, unix_time_s=1636561503, latitude_deg=0, flags=239, temperature_c=44.04999923706055}
2021-11-10T16:24:55.000 183293415 a64780... addobs {pressure_hpa=983.0999755859375, longitude_deg=0, elevation2_m=163, launch_id=whmy5biw44s3, gps_elevation_m=0, humidity_percent=32.220001220703125, unix_time_s=1636561493, latitude_deg=0, flags=239, temperature_c=43.86000061035156}
2021-11-10T16:24:45.000 183293395 0982a4... addobs {pressure_hpa=982.5, longitude_deg=0, elevation2_m=168, launch_id=whmy5biw44s3, gps_elevation_m=0, humidity_percent=32.810001373291016, unix_time_s=1636561483, latitude_deg=0, flags=239, temperature_c=43.43000030517578}
2021-11-10T16:24:35.000 183293375 c47911... addobs {pressure_hpa=981.4000244140625, longitude_deg=0, elevation2_m=179, launch_id=whmy5biw44s3, gps_elevation_m=0, humidity_percent=32.56999969482422, unix_time_s=1636561473, latitude_deg=0, flags=239, temperature_c=43.41999816894531}
2021-11-10T16:24:25.000 183293355 5b441c... addobs {pressure_hpa=980.2999877929688, longitude_deg=0, elevation2_m=190, launch_id=whmy5biw44s3, gps_elevation_m=0, humidity_percent=31.899999618530273, unix_time_s=1636561463, latitude_deg=0, flags=239, temperature_c=43.939998626708984}
2021-11-10T16:24:14.500 183293334 94abd7... addobs {pressure_hpa=979.2999877929688, longitude_deg=0, elevation2_m=200, launch_id=whmy5biw44s3, gps_elevation_m=0, humidity_percent=32.060001373291016, unix_time_s=1636561453, latitude_deg=0, flags=239, temperature_c=43.91999816894531}
2021-11-10T16:24:10.000 183293325 6a15a2... addobs {pressure_hpa=978, longitude_deg=0, elevation2_m=211, launch_id=whmy5biw44s3, gps_elevation_m=0, humidity_percent=32.4900016784668, unix_time_s=1636561448, latitude_deg=0, flags=239, temperature_c=43.61000061035156}
2021-11-10T16:24:00.000 183293305 00038f... addobs {pressure_hpa=977, longitude_deg=0, elevation2_m=221, launch_id=whmy5biw44s3, gps_elevation_m=0, humidity_percent=32.41999816894531, unix_time_s=1636561438, latitude_deg=0, flags=239, temperature_c=43.560001373291016}
2021-11-10T16:23:49.500 183293284 0386b3... addobs {pressure_hpa=976.5, longitude_deg=0, elevation2_m=226, launch_id=whmy5biw44s3, gps_elevation_m=0, humidity_percent=32.29999923706055, unix_time_s=1636561428, latitude_deg=0, flags=239, temperature_c=43.619998931884766}
2021-11-10T16:23:39.500 183293264 dd0509... addobs {pressure_hpa=975.4000244140625, longitude_deg=0, elevation2_m=237, launch_id=whmy5biw44s3, gps_elevation_m=0, humidity_percent=32.2599983215332, unix_time_s=1636561418, latitude_deg=0, flags=239, temperature_c=43.619998931884766}
2021-11-10T16:23:30.000 183293245 89426b... addobs {pressure_hpa=974.2000122070312, longitude_deg=0, elevation2_m=248, launch_id=whmy5biw44s3, gps_elevation_m=0, humidity_percent=32.5, unix_time_s=1636561408, latitude_deg=0, flags=239, temperature_c=43.45000076293945}
2021-11-10T16:23:19.500 183293224 4ae912... addobs {pressure_hpa=973.2999877929688, longitude_deg=0, elevation2_m=257, launch_id=whmy5biw44s3, gps_elevation_m=0, humidity_percent=32.5099983215332, unix_time_s=1636561398, latitude_deg=0, flags=239, temperature_c=43.369998931884766}
2021-11-10T16:23:09.500 183293204 e967ca... addobs {pressure_hpa=972.2999877929688, longitude_deg=0, elevation2_m=266, launch_id=whmy5biw44s3, gps_elevation_m=0, humidity_percent=32.2400016784668, unix_time_s=1636561388, latitude_deg=0, flags=239, temperature_c=43.470001220703125}
2021-11-10T16:23:05.000 183293195 ed6015... addobs {pressure_hpa=971.2999877929688, longitude_deg=0, elevation2_m=276, launch_id=whmy5biw44s3, gps_elevation_m=0, humidity_percent=31.950000762939453, unix_time_s=1636561383, latitude_deg=0, flags=239, temperature_c=43.790000915527344}
2021-11-10T16:22:54.500 183293174 cbf85b... addobs {pressure_hpa=970.4000244140625, longitude_deg=0, elevation2_m=285, launch_id=whmy5biw44s3, gps_elevation_m=0, humidity_percent=32.439998626708984, unix_time_s=1636561373, latitude_deg=0, flags=239, temperature_c=43.38999938964844}
2021-11-10T16:22:44.500 183293154 6753be... addobs {pressure_hpa=969.9000244140625, longitude_deg=0, elevation2_m=289, launch_id=whmy5biw44s3, gps_elevation_m=0, humidity_percent=32.560001373291016, unix_time_s=1636561363, latitude_deg=0, flags=239, temperature_c=43.29999923706055}
2021-11-10T16:22:34.500 183293134 9d12c0... addobs {pressure_hpa=969.0999755859375, longitude_deg=0, elevation2_m=297, launch_id=whmy5biw44s3, gps_elevation_m=0, humidity_percent=32.54999923706055, unix_time_s=1636561353, latitude_deg=0, flags=239, temperature_c=43.22999954223633}
2021-11-10T16:22:24.500 183293114 85b03e... addobs {pressure_hpa=968.2999877929688, longitude_deg=0, elevation2_m=305, launch_id=whmy5biw44s3, gps_elevation_m=0, humidity_percent=32.31999969482422, unix_time_s=1636561343, latitude_deg=0, flags=239, temperature_c=43.45000076293945}
2021-11-10T16:22:15.000 183293095 cef50b... addobs {pressure_hpa=967.4000244140625, longitude_deg=0, elevation2_m=313, launch_id=whmy5biw44s3, gps_elevation_m=0, humidity_percent=32.2400016784668, unix_time_s=1636561333, latitude_deg=0, flags=239, temperature_c=43.43000030517578}
2021-11-10T16:22:05.000 183293075 2616f9... addobs {pressure_hpa=966.5999755859375, longitude_deg=0, elevation2_m=321, launch_id=whmy5biw44s3, gps_elevation_m=0, humidity_percent=32.290000915527344, unix_time_s=1636561323, latitude_deg=0, flags=239, temperature_c=43.38999938964844}
2021-11-10T16:22:00.000 183293065 b03b0a... addobs {pressure_hpa=965.9000244140625, longitude_deg=0, elevation2_m=329, launch_id=whmy5biw44s3, gps_elevation_m=0, humidity_percent=32.630001068115234, unix_time_s=1636561318, latitude_deg=0, flags=239, temperature_c=43.08000183105469}
2021-11-10T16:21:49.500 183293044 a25295... addobs {pressure_hpa=965.5, longitude_deg=0, elevation2_m=332, launch_id=whmy5biw44s3, gps_elevation_m=0, humidity_percent=32.7400016784668, unix_time_s=1636561308, latitude_deg=0, flags=239, temperature_c=43.08000183105469}
2021-11-10T16:21:39.500 183293024 bfa520... addobs {pressure_hpa=964.5999755859375, longitude_deg=0, elevation2_m=341, launch_id=whmy5biw44s3, gps_elevation_m=0, humidity_percent=33.040000915527344, unix_time_s=1636561298, latitude_deg=0, flags=239, temperature_c=42.880001068115234}
2021-11-10T16:21:29.500 183293004 88ff40... addobs {pressure_hpa=963.7999877929688, longitude_deg=0, elevation2_m=349, launch_id=whmy5biw44s3, gps_elevation_m=0, humidity_percent=33.41999816894531, unix_time_s=1636561288, latitude_deg=0, flags=239, temperature_c=42.5}
2021-11-10T16:21:19.500 183292984 20e29e... addobs {pressure_hpa=962.9000244140625, longitude_deg=0, elevation2_m=357, launch_id=whmy5biw44s3, gps_elevation_m=0, humidity_percent=32.81999969482422, unix_time_s=1636561278, latitude_deg=0, flags=239, temperature_c=42.560001373291016}
2021-11-10T16:21:09.500 183292964 5d9976... addobs {pressure_hpa=962.0999755859375, longitude_deg=0, elevation2_m=365, launch_id=whmy5biw44s3, gps_elevation_m=0, humidity_percent=30.56999969482422, unix_time_s=1636561268, latitude_deg=0, flags=239, temperature_c=44.310001373291016}
2021-11-10T16:21:04.500 183292954 1c38ca... addobs {pressure_hpa=961.2000122070312, longitude_deg=0, elevation2_m=374, launch_id=whmy5biw44s3, gps_elevation_m=0, humidity_percent=30.170000076293945, unix_time_s=1636561263, latitude_deg=0, flags=239, temperature_c=44.7599983215332}
2021-11-10T16:20:55.000 183292935 cd9075... addobs {pressure_hpa=960.5, longitude_deg=0, elevation2_m=381, launch_id=whmy5biw44s3, gps_elevation_m=0, humidity_percent=30.68000030517578, unix_time_s=1636561253, latitude_deg=0, flags=239, temperature_c=44.290000915527344}
2021-11-10T16:20:45.000 183292915 40db2b... addobs {pressure_hpa=960.2000122070312, longitude_deg=0, elevation2_m=384, launch_id=whmy5biw44s3, gps_elevation_m=0, humidity_percent=30.93000030517578, unix_time_s=1636561243, latitude_deg=0, flags=239, temperature_c=44.040000915527344}
2021-11-10T16:20:35.000 183292895 e623f1... addobs {pressure_hpa=959.5, longitude_deg=0, elevation2_m=391, launch_id=whmy5biw44s3, gps_elevation_m=0, humidity_percent=30.56999969482422, unix_time_s=1636561233, latitude_deg=0, flags=239, temperature_c=44.279998779296875}
2021-11-10T16:20:24.500 183292874 0e9580... addobs {pressure_hpa=958.7000122070312, longitude_deg=0, elevation2_m=398, launch_id=whmy5biw44s3, gps_elevation_m=0, humidity_percent=30.5, unix_time_s=1636561223, latitude_deg=0, flags=239, temperature_c=44.43000030517578}
2021-11-10T16:20:15.000 183292855 f5e509... addobs {pressure_hpa=958, longitude_deg=0, elevation2_m=405, launch_id=whmy5biw44s3, gps_elevation_m=0, humidity_percent=30.950000762939453, unix_time_s=1636561213, latitude_deg=0, flags=239, temperature_c=44.119998931884766}
2021-11-10T16:20:04.500 183292834 9bd983... addobs {pressure_hpa=957.2999877929688, longitude_deg=0, elevation2_m=412, launch_id=whmy5biw44s3, gps_elevation_m=0, humidity_percent=31.6200008392334, unix_time_s=1636561203, latitude_deg=0, flags=239, temperature_c=43.63999938964844}
2021-11-10T16:20:00.000 183292825 192404... addobs {pressure_hpa=956.7000122070312, longitude_deg=0, elevation2_m=418, launch_id=whmy5biw44s3, gps_elevation_m=0, humidity_percent=32.31999969482422, unix_time_s=1636561198, latitude_deg=0, flags=239, temperature_c=43}
2021-11-10T16:19:49.500 183292804 b6c511... addobs {pressure_hpa=956.5, longitude_deg=0, elevation2_m=420, launch_id=whmy5biw44s3, gps_elevation_m=0, humidity_percent=32.20000076293945, unix_time_s=1636561188, latitude_deg=0, flags=239, temperature_c=43.02000045776367}
2021-11-10T16:19:39.500 183292784 a76b05... addobs {pressure_hpa=956.0999755859375, longitude_deg=0, elevation2_m=424, launch_id=whmy5biw44s3, gps_elevation_m=0, humidity_percent=31.299999237060547, unix_time_s=1636561178, latitude_deg=0, flags=239, temperature_c=43.5}
2021-11-10T16:19:29.500 183292764 609b3b... addobs {pressure_hpa=955.5, longitude_deg=0, elevation2_m=430, launch_id=whmy5biw44s3, gps_elevation_m=0, humidity_percent=30.469999313354492, unix_time_s=1636561168, latitude_deg=0, flags=239, temperature_c=44.29999923706055}
2021-11-10T16:19:19.500 183292744 b4ab71... addobs {pressure_hpa=954.9000244140625, longitude_deg=0, elevation2_m=436, launch_id=whmy5biw44s3, gps_elevation_m=0, humidity_percent=29.989999771118164, unix_time_s=1636561158, latitude_deg=0, flags=239, temperature_c=44.709999084472656}
2021-11-10T16:19:09.500 183292724 a4ad39... addobs {pressure_hpa=954.2999877929688, longitude_deg=0, elevation2_m=442, launch_id=whmy5biw44s3, gps_elevation_m=0, humidity_percent=29.84000015258789, unix_time_s=1636561148, latitude_deg=0, flags=239, temperature_c=44.70000076293945}
2021-11-10T16:19:04.500 183292714 d79c30... addobs {pressure_hpa=953.7000122070312, longitude_deg=0, elevation2_m=447, launch_id=whmy5biw44s3, gps_elevation_m=0, humidity_percent=30.030000686645508, unix_time_s=1636561143, latitude_deg=0, flags=239, temperature_c=44.709999084472656}
2021-11-10T16:18:54.500 183292694 a18f47... addobs {pressure_hpa=953.0999755859375, longitude_deg=0, elevation2_m=454, launch_id=whmy5biw44s3, gps_elevation_m=0, humidity_percent=30.639999389648438, unix_time_s=1636561133, latitude_deg=0, flags=239, temperature_c=44.220001220703125}
2021-11-10T16:18:44.500 183292674 8987b9... addobs {pressure_hpa=952.7000122070312, longitude_deg=0, elevation2_m=457, launch_id=whmy5biw44s3, gps_elevation_m=0, humidity_percent=30.850000381469727, unix_time_s=1636561123, latitude_deg=0, flags=239, temperature_c=43.95000076293945}
2021-11-10T16:18:34.500 183292654 7605c3... addobs {pressure_hpa=951.9000244140625, longitude_deg=0, elevation2_m=466, launch_id=whmy5biw44s3, gps_elevation_m=0, humidity_percent=31.110000610351562, unix_time_s=1636561113, latitude_deg=0, flags=239, temperature_c=43.81999969482422}
2021-11-10T16:18:25.000 183292635 782f70... addobs {pressure_hpa=951, longitude_deg=0, elevation2_m=474, launch_id=whmy5biw44s3, gps_elevation_m=0, humidity_percent=31.170000076293945, unix_time_s=1636561103, latitude_deg=0, flags=239, temperature_c=43.77000045776367}
2021-11-10T16:18:14.500 183292614 d8f561... addobs {pressure_hpa=950.2999877929688, longitude_deg=0, elevation2_m=481, launch_id=whmy5biw44s3, gps_elevation_m=0, humidity_percent=31.139999389648438, unix_time_s=1636561093, latitude_deg=0, flags=239, temperature_c=43.81999969482422}
2021-11-10T16:18:04.500 183292594 4eda8f... addobs {pressure_hpa=949.5, longitude_deg=0, elevation2_m=489, launch_id=whmy5biw44s3, gps_elevation_m=0, humidity_percent=31.3700008392334, unix_time_s=1636561083, latitude_deg=0, flags=239, temperature_c=43.630001068115234}
2021-11-10T16:17:59.500 183292584 a325dc... addobs {pressure_hpa=948.7000122070312, longitude_deg=0, elevation2_m=497, launch_id=whmy5biw44s3, gps_elevation_m=0, humidity_percent=31.479999542236328, unix_time_s=1636561078, latitude_deg=0, flags=239, temperature_c=43.560001373291016}
2021-11-10T16:17:49.500 183292564 f814dd... addobs {pressure_hpa=948.2000122070312, longitude_deg=0, elevation2_m=502, launch_id=whmy5biw44s3, gps_elevation_m=0, humidity_percent=31.829999923706055, unix_time_s=1636561068, latitude_deg=0, flags=239, temperature_c=43.27000045776367}
2021-11-10T16:17:39.500 183292544 1df912... addobs {pressure_hpa=947.4000244140625, longitude_deg=0, elevation2_m=509, launch_id=whmy5biw44s3, gps_elevation_m=0, humidity_percent=31.600000381469727, unix_time_s=1636561058, latitude_deg=0, flags=239, temperature_c=43.27000045776367}
2021-11-10T16:17:29.500 183292524 ef1906... addobs {pressure_hpa=946.7000122070312, longitude_deg=0, elevation2_m=516, launch_id=whmy5biw44s3, gps_elevation_m=0, humidity_percent=29.959999084472656, unix_time_s=1636561048, latitude_deg=0, flags=239, temperature_c=44.38999938964844}
2021-11-10T16:17:19.500 183292504 28d999... addobs {pressure_hpa=945.9000244140625, longitude_deg=0, elevation2_m=525, launch_id=whmy5biw44s3, gps_elevation_m=0, humidity_percent=29.850000381469727, unix_time_s=1636561038, latitude_deg=0, flags=239, temperature_c=44.599998474121094}
2021-11-10T16:17:09.500 183292484 848f8d... addobs {pressure_hpa=945.2000122070312, longitude_deg=0, elevation2_m=531, launch_id=whmy5biw44s3, gps_elevation_m=0, humidity_percent=30.34000015258789, unix_time_s=1636561028, latitude_deg=0, flags=239, temperature_c=44.209999084472656}
2021-11-10T16:17:04.500 183292474 8bdc0c... addobs {pressure_hpa=944.5, longitude_deg=0, elevation2_m=539, launch_id=whmy5biw44s3, gps_elevation_m=0, humidity_percent=30.059999465942383, unix_time_s=1636561023, latitude_deg=0, flags=239, temperature_c=44.43000030517578}
2021-11-10T16:16:54.500 183292454 5c094f... addobs {pressure_hpa=943.7000122070312, longitude_deg=0, elevation2_m=546, launch_id=whmy5biw44s3, gps_elevation_m=0, humidity_percent=29.850000381469727, unix_time_s=1636561013, latitude_deg=0, flags=239, temperature_c=44.5}
2021-11-10T16:16:45.000 183292435 ad888c... addobs {pressure_hpa=943.2999877929688, longitude_deg=0, elevation2_m=550, launch_id=whmy5biw44s3, gps_elevation_m=0, humidity_percent=29.90999984741211, unix_time_s=1636561003, latitude_deg=0, flags=239, temperature_c=44.40999984741211}
2021-11-10T16:16:34.500 183292414 a0a5d5... addobs {pressure_hpa=942.4000244140625, longitude_deg=0, elevation2_m=559, launch_id=whmy5biw44s3, gps_elevation_m=0, humidity_percent=30.1299991607666, unix_time_s=1636560993, latitude_deg=0, flags=239, temperature_c=44.130001068115234}
2021-11-10T16:16:24.500 183292394 8004ac... addobs {pressure_hpa=941.5, longitude_deg=0, elevation2_m=568, launch_id=whmy5biw44s3, gps_elevation_m=0, humidity_percent=29.079999923706055, unix_time_s=1636560983, latitude_deg=0, flags=239, temperature_c=44.72999954223633}
2021-11-10T16:16:14.500 183292374 25b75f... addobs {pressure_hpa=940.5999755859375, longitude_deg=0, elevation2_m=577, launch_id=whmy5biw44s3, gps_elevation_m=0, humidity_percent=27.809999465942383, unix_time_s=1636560973, latitude_deg=0, flags=239, temperature_c=45.84000015258789}
2021-11-10T16:16:05.000 183292355 1dafae... addobs {pressure_hpa=939.7999877929688, longitude_deg=0, elevation2_m=585, launch_id=whmy5biw44s3, gps_elevation_m=0, humidity_percent=28, unix_time_s=1636560963, latitude_deg=0, flags=239, temperature_c=45.72999954223633}
2021-11-10T16:15:59.500 183292344 9337b2... addobs {pressure_hpa=939.0999755859375, longitude_deg=0, elevation2_m=593, launch_id=whmy5biw44s3, gps_elevation_m=0, humidity_percent=27.6299991607666, unix_time_s=1636560958, latitude_deg=0, flags=239, temperature_c=45.90999984741211}
2021-11-10T16:15:49.500 183292324 1a2a4a... addobs {pressure_hpa=938.7000122070312, longitude_deg=0, elevation2_m=597, launch_id=whmy5biw44s3, gps_elevation_m=0, humidity_percent=27.600000381469727, unix_time_s=1636560948, latitude_deg=0, flags=239, temperature_c=45.900001525878906}
2021-11-10T16:15:39.500 183292304 94e112... addobs {pressure_hpa=937.9000244140625, longitude_deg=0, elevation2_m=605, launch_id=whmy5biw44s3, gps_elevation_m=0, humidity_percent=27.579999923706055, unix_time_s=1636560938, latitude_deg=0, flags=239, temperature_c=45.91999816894531}
2021-11-10T16:15:29.500 183292284 d53877... addobs {pressure_hpa=937.2000122070312, longitude_deg=0, elevation2_m=612, launch_id=whmy5biw44s3, gps_elevation_m=0, humidity_percent=27.399999618530273, unix_time_s=1636560928, latitude_deg=0, flags=239, temperature_c=46.06999969482422}
2021-11-10T16:15:19.500 183292264 e1ce61... addobs {pressure_hpa=936.4000244140625, longitude_deg=0, elevation2_m=620, launch_id=whmy5biw44s3, gps_elevation_m=0, humidity_percent=26.979999542236328, unix_time_s=1636560918, latitude_deg=0, flags=239, temperature_c=46.2400016784668}
2021-11-10T16:15:09.500 183292244 8cd122... addobs {pressure_hpa=935.7999877929688, longitude_deg=0, elevation2_m=626, launch_id=whmy5biw44s3, gps_elevation_m=0, humidity_percent=26.459999084472656, unix_time_s=1636560908, latitude_deg=0, flags=239, temperature_c=46.66999816894531}
2021-11-10T16:15:04.500 183292234 50fda4... addobs {pressure_hpa=934.9000244140625, longitude_deg=0, elevation2_m=635, launch_id=whmy5biw44s3, gps_elevation_m=0, humidity_percent=26.68000030517578, unix_time_s=1636560903, latitude_deg=0, flags=239, temperature_c=46.47999954223633}
2021-11-10T16:14:54.500 183292214 161a44... addobs {pressure_hpa=934.0999755859375, longitude_deg=0, elevation2_m=643, launch_id=whmy5biw44s3, gps_elevation_m=0, humidity_percent=26.049999237060547, unix_time_s=1636560893, latitude_deg=0, flags=239, temperature_c=46.84000015258789}
2021-11-10T16:14:44.500 183292194 7adc1b... addobs {pressure_hpa=933.5999755859375, longitude_deg=0, elevation2_m=648, launch_id=whmy5biw44s3, gps_elevation_m=0, humidity_percent=26.209999084472656, unix_time_s=1636560883, latitude_deg=0, flags=239, temperature_c=46.7400016784668}
2021-11-10T16:14:34.500 183292174 db8cd1... addobs {pressure_hpa=932.7999877929688, longitude_deg=0, elevation2_m=657, launch_id=whmy5biw44s3, gps_elevation_m=0, humidity_percent=26.280000686645508, unix_time_s=1636560873, latitude_deg=0, flags=239, temperature_c=46.65999984741211}
2021-11-10T16:14:24.500 183292154 1d0e51... addobs {pressure_hpa=931.9000244140625, longitude_deg=0, elevation2_m=665, launch_id=whmy5biw44s3, gps_elevation_m=0, humidity_percent=26.600000381469727, unix_time_s=1636560863, latitude_deg=0, flags=239, temperature_c=46.290000915527344}
2021-11-10T16:14:14.500 183292134 ff2642... addobs {pressure_hpa=931.2000122070312, longitude_deg=0, elevation2_m=673, launch_id=whmy5biw44s3, gps_elevation_m=0, humidity_percent=26.40999984741211, unix_time_s=1636560853, latitude_deg=0, flags=239, temperature_c=46.599998474121094}
2021-11-10T16:14:04.500 183292114 c5c07b... addobs {pressure_hpa=930.4000244140625, longitude_deg=0, elevation2_m=681, launch_id=whmy5biw44s3, gps_elevation_m=0, humidity_percent=26.739999771118164, unix_time_s=1636560843, latitude_deg=0, flags=239, temperature_c=46.189998626708984}
2021-11-10T16:14:00.000 183292105 f05391... addobs {pressure_hpa=929.7999877929688, longitude_deg=0, elevation2_m=687, launch_id=whmy5biw44s3, gps_elevation_m=0, humidity_percent=26.6299991607666, unix_time_s=1636560838, latitude_deg=0, flags=239, temperature_c=46.15999984741211}
2021-11-10T16:13:50.000 183292085 2ebcd8... addobs {pressure_hpa=929.4000244140625, longitude_deg=0, elevation2_m=691, launch_id=whmy5biw44s3, gps_elevation_m=0, humidity_percent=26.059999465942383, unix_time_s=1636560828, latitude_deg=0, flags=239, temperature_c=46.61000061035156}
2021-11-10T16:13:39.500 183292064 9e45d0... addobs {pressure_hpa=929, longitude_deg=0, elevation2_m=695, launch_id=whmy5biw44s3, gps_elevation_m=0, humidity_percent=26.079999923706055, unix_time_s=1636560818, latitude_deg=0, flags=239, temperature_c=46.66999816894531}
2021-11-10T16:13:29.500 183292044 4e6d63... addobs {pressure_hpa=927.5, longitude_deg=0, elevation2_m=710, launch_id=whmy5biw44s3, gps_elevation_m=0, humidity_percent=26, unix_time_s=1636560808, latitude_deg=0, flags=239, temperature_c=46.540000915527344}
2021-11-10T16:13:19.500 183292024 fc91e6... addobs {pressure_hpa=928.0999755859375, longitude_deg=0, elevation2_m=705, launch_id=whmy5biw44s3, gps_elevation_m=0, humidity_percent=25.15999984741211, unix_time_s=1636560798, latitude_deg=0, flags=239, temperature_c=47.369998931884766}
2021-11-10T16:13:09.500 183292004 64f5f0... addobs {pressure_hpa=927.5999755859375, longitude_deg=0, elevation2_m=709, launch_id=whmy5biw44s3, gps_elevation_m=0, humidity_percent=24.920000076293945, unix_time_s=1636560788, latitude_deg=0, flags=239, temperature_c=47.560001373291016}
2021-11-10T16:13:04.500 183291994 a920bc... addobs {pressure_hpa=926.5, longitude_deg=0, elevation2_m=721, launch_id=whmy5biw44s3, gps_elevation_m=0, humidity_percent=24.700000762939453, unix_time_s=1636560783, latitude_deg=0, flags=239, temperature_c=47.68000030517578}
2021-11-10T16:12:54.500 183291974 c8fd32... addobs {pressure_hpa=926.9000244140625, longitude_deg=0, elevation2_m=716, launch_id=whmy5biw44s3, gps_elevation_m=0, humidity_percent=24.90999984741211, unix_time_s=1636560773, latitude_deg=0, flags=239, temperature_c=47.439998626708984}
2021-11-10T16:12:44.500 183291954 c89ffb... addobs {pressure_hpa=926.7000122070312, longitude_deg=0, elevation2_m=718, launch_id=whmy5biw44s3, gps_elevation_m=0, humidity_percent=24.739999771118164, unix_time_s=1636560763, latitude_deg=0, flags=239, temperature_c=47.7599983215332}
2021-11-10T16:12:34.500 183291934 f4246b... addobs {pressure_hpa=926.4000244140625, longitude_deg=0, elevation2_m=721, launch_id=whmy5biw44s3, gps_elevation_m=0, humidity_percent=24.649999618530273, unix_time_s=1636560753, latitude_deg=0, flags=239, temperature_c=47.75}
2021-11-10T16:12:24.500 183291914 92bd4b... addobs {pressure_hpa=926.0999755859375, longitude_deg=0, elevation2_m=725, launch_id=whmy5biw44s3, gps_elevation_m=0, humidity_percent=24.790000915527344, unix_time_s=1636560743, latitude_deg=0, flags=239, temperature_c=47.54999923706055}
2021-11-10T16:12:14.500 183291894 63d214... addobs {pressure_hpa=925.9000244140625, longitude_deg=0, elevation2_m=727, launch_id=whmy5biw44s3, gps_elevation_m=0, humidity_percent=24.549999237060547, unix_time_s=1636560733, latitude_deg=0, flags=239, temperature_c=47.75}
2021-11-10T16:12:04.500 183291874 2ef9f2... addobs {pressure_hpa=925.5, longitude_deg=0, elevation2_m=730, launch_id=whmy5biw44s3, gps_elevation_m=0, humidity_percent=24.549999237060547, unix_time_s=1636560723, latitude_deg=0, flags=239, temperature_c=47.720001220703125}
2021-11-10T16:11:59.500 183291864 54c6cf... addobs {pressure_hpa=925.2000122070312, longitude_deg=0, elevation2_m=734, launch_id=whmy5biw44s3, gps_elevation_m=0, humidity_percent=24.280000686645508, unix_time_s=1636560718, latitude_deg=0, flags=239, temperature_c=47.95000076293945}
2021-11-10T16:11:49.500 183291844 796361... addobs {pressure_hpa=924.9000244140625, longitude_deg=0, elevation2_m=737, launch_id=whmy5biw44s3, gps_elevation_m=0, humidity_percent=23.829999923706055, unix_time_s=1636560708, latitude_deg=0, flags=239, temperature_c=48.36000061035156}
2021-11-10T16:11:39.500 183291824 08c604... addobs {pressure_hpa=924.2999877929688, longitude_deg=0, elevation2_m=743, launch_id=whmy5biw44s3, gps_elevation_m=0, humidity_percent=22.649999618530273, unix_time_s=1636560698, latitude_deg=0, flags=239, temperature_c=49.43000030517578}
2021-11-10T16:11:29.500 183291804 3fbb29... addobs {pressure_hpa=923.5999755859375, longitude_deg=0, elevation2_m=750, launch_id=whmy5biw44s3, gps_elevation_m=0, humidity_percent=22.200000762939453, unix_time_s=1636560688, latitude_deg=0, flags=239, temperature_c=49.7599983215332}
2021-11-10T16:11:19.500 183291784 a81ce2... addobs {pressure_hpa=923, longitude_deg=0, elevation2_m=757, launch_id=whmy5biw44s3, gps_elevation_m=0, humidity_percent=21.899999618530273, unix_time_s=1636560678, latitude_deg=0, flags=239, temperature_c=50.06999969482422}
2021-11-10T16:11:09.500 183291764 b71d4f... addobs {pressure_hpa=922.5, longitude_deg=0, elevation2_m=762, launch_id=whmy5biw44s3, gps_elevation_m=0, humidity_percent=22.09000015258789, unix_time_s=1636560668, latitude_deg=0, flags=239, temperature_c=49.88999938964844}
2021-11-10T16:11:04.500 183291754 5728a7... addobs {pressure_hpa=922.0999755859375, longitude_deg=0, elevation2_m=766, launch_id=whmy5biw44s3, gps_elevation_m=0, humidity_percent=22.200000762939453, unix_time_s=1636560663, latitude_deg=0, flags=239, temperature_c=49.84000015258789}
2021-11-10T16:10:54.000 183291733 8b9ddc... addobs {pressure_hpa=921.5999755859375, longitude_deg=0, elevation2_m=771, launch_id=whmy5biw44s3, gps_elevation_m=0, humidity_percent=22.459999084472656, unix_time_s=1636560653, latitude_deg=0, flags=239, temperature_c=49.45000076293945}
2021-11-10T16:10:44.500 183291714 741822... addobs {pressure_hpa=921.4000244140625, longitude_deg=0, elevation2_m=773, launch_id=whmy5biw44s3, gps_elevation_m=0, humidity_percent=22.440000534057617, unix_time_s=1636560643, latitude_deg=0, flags=239, temperature_c=49.4900016784668}
2021-11-10T16:10:34.500 183291694 af3399... addobs {pressure_hpa=920.9000244140625, longitude_deg=0, elevation2_m=779, launch_id=whmy5biw44s3, gps_elevation_m=0, humidity_percent=22.799999237060547, unix_time_s=1636560633, latitude_deg=0, flags=239, temperature_c=49.06999969482422}
2021-11-10T16:10:24.500 183291674 197201... addobs {pressure_hpa=920.7000122070312, longitude_deg=0, elevation2_m=781, launch_id=whmy5biw44s3, gps_elevation_m=0, humidity_percent=22.829999923706055, unix_time_s=1636560623, latitude_deg=0, flags=239, temperature_c=49.040000915527344}
2021-11-10T16:10:14.500 183291654 0c1a00... addobs {pressure_hpa=920.2999877929688, longitude_deg=0, elevation2_m=784, launch_id=whmy5biw44s3, gps_elevation_m=0, humidity_percent=22.639999389648438, unix_time_s=1636560613, latitude_deg=0, flags=239, temperature_c=49.130001068115234}
2021-11-10T16:10:04.500 183291634 92ee81... addobs {pressure_hpa=919.7999877929688, longitude_deg=0, elevation2_m=790, launch_id=whmy5biw44s3, gps_elevation_m=0, humidity_percent=22.40999984741211, unix_time_s=1636560603, latitude_deg=0, flags=239, temperature_c=49.349998474121094}
2021-11-10T16:09:59.000 183291623 8d9270... addobs {pressure_hpa=919.0999755859375, longitude_deg=0, elevation2_m=797, launch_id=whmy5biw44s3, gps_elevation_m=0, humidity_percent=22.079999923706055, unix_time_s=1636560598, latitude_deg=0, flags=239, temperature_c=49.65999984741211}
2021-11-10T16:09:49.500 183291604 58afc3... addobs {pressure_hpa=918.7000122070312, longitude_deg=0, elevation2_m=801, launch_id=whmy5biw44s3, gps_elevation_m=0, humidity_percent=21.780000686645508, unix_time_s=1636560588, latitude_deg=0, flags=239, temperature_c=49.959999084472656}
2021-11-10T16:09:39.500 183291584 e095c6... addobs {pressure_hpa=917.9000244140625, longitude_deg=0, elevation2_m=810, launch_id=whmy5biw44s3, gps_elevation_m=0, humidity_percent=21.610000610351562, unix_time_s=1636560578, latitude_deg=0, flags=239, temperature_c=50.08000183105469}
2021-11-10T16:09:29.500 183291564 922acc... addobs {pressure_hpa=917.2000122070312, longitude_deg=0, elevation2_m=817, launch_id=whmy5biw44s3, gps_elevation_m=0, humidity_percent=21.329999923706055, unix_time_s=1636560568, latitude_deg=0, flags=239, temperature_c=50.36000061035156}
2021-11-10T16:09:19.500 183291544 62918f... addobs {pressure_hpa=916.4000244140625, longitude_deg=0, elevation2_m=825, launch_id=whmy5biw44s3, gps_elevation_m=0, humidity_percent=21.25, unix_time_s=1636560558, latitude_deg=0, flags=239, temperature_c=50.470001220703125}
2021-11-10T16:09:09.500 183291524 5b6d68... addobs {pressure_hpa=915.5999755859375, longitude_deg=0, elevation2_m=834, launch_id=whmy5biw44s3, gps_elevation_m=0, humidity_percent=21.510000228881836, unix_time_s=1636560548, latitude_deg=0, flags=239, temperature_c=50.099998474121094}
2021-11-10T16:08:59.500 183291504 0bdcc9... addobs {pressure_hpa=914.7000122070312, longitude_deg=0, elevation2_m=843, launch_id=whmy5biw44s3, gps_elevation_m=0, humidity_percent=21.3799991607666, unix_time_s=1636560538, latitude_deg=0, flags=239, temperature_c=50.20000076293945}
2021-11-10T16:08:54.000 183291493 30fd1d... addobs {pressure_hpa=914.0999755859375, longitude_deg=0, elevation2_m=849, launch_id=whmy5biw44s3, gps_elevation_m=0, humidity_percent=21.260000228881836, unix_time_s=1636560533, latitude_deg=0, flags=239, temperature_c=50.290000915527344}
2021-11-10T16:08:44.500 183291474 3c2e29... addobs {pressure_hpa=913.9000244140625, longitude_deg=0, elevation2_m=852, launch_id=whmy5biw44s3, gps_elevation_m=0, humidity_percent=21.239999771118164, unix_time_s=1636560523, latitude_deg=0, flags=239, temperature_c=50.31999969482422}
2021-11-10T16:08:34.500 183291454 11aea4... addobs {pressure_hpa=913.2999877929688, longitude_deg=0, elevation2_m=857, launch_id=whmy5biw44s3, gps_elevation_m=0, humidity_percent=21.020000457763672, unix_time_s=1636560513, latitude_deg=0, flags=239, temperature_c=50.41999816894531}
2021-11-10T16:08:24.500 183291434 252928... addobs {pressure_hpa=912.7000122070312, longitude_deg=0, elevation2_m=864, launch_id=whmy5biw44s3, gps_elevation_m=0, humidity_percent=20.829999923706055, unix_time_s=1636560503, latitude_deg=0, flags=239, temperature_c=50.61000061035156}
2021-11-10T16:08:14.000 183291413 993b39... addobs {pressure_hpa=912.2000122070312, longitude_deg=0, elevation2_m=869, launch_id=whmy5biw44s3, gps_elevation_m=0, humidity_percent=20.309999465942383, unix_time_s=1636560493, latitude_deg=0, flags=239, temperature_c=51.18000030517578}
2021-11-10T16:08:04.500 183291394 3765d8... addobs {pressure_hpa=911.7000122070312, longitude_deg=0, elevation2_m=874, launch_id=whmy5biw44s3, gps_elevation_m=0, humidity_percent=19.979999542236328, unix_time_s=1636560483, latitude_deg=0, flags=239, temperature_c=51.5099983215332}
2021-11-10T16:07:59.500 183291384 48f308... addobs {pressure_hpa=911.4000244140625, longitude_deg=0, elevation2_m=878, launch_id=whmy5biw44s3, gps_elevation_m=0, humidity_percent=19.829999923706055, unix_time_s=1636560478, latitude_deg=0, flags=239, temperature_c=51.61000061035156}
2021-11-10T16:07:49.000 183291363 d9f67e... addobs {pressure_hpa=911.2000122070312, longitude_deg=0, elevation2_m=879, launch_id=whmy5biw44s3, gps_elevation_m=0, humidity_percent=19.639999389648438, unix_time_s=1636560468, latitude_deg=0, flags=239, temperature_c=51.779998779296875}
2021-11-10T16:07:39.500 183291344 fe50f5... addobs {pressure_hpa=911, longitude_deg=0, elevation2_m=882, launch_id=whmy5biw44s3, gps_elevation_m=0, humidity_percent=19.520000457763672, unix_time_s=1636560458, latitude_deg=0, flags=239, temperature_c=51.939998626708984}
2021-11-10T16:07:29.500 183291324 ec3c0d... addobs {pressure_hpa=910.9000244140625, longitude_deg=0, elevation2_m=883, launch_id=whmy5biw44s3, gps_elevation_m=0, humidity_percent=18.989999771118164, unix_time_s=1636560448, latitude_deg=0, flags=239, temperature_c=52.560001373291016}
2021-11-10T16:07:19.500 183291304 0e618a... addobs {pressure_hpa=910.7000122070312, longitude_deg=0, elevation2_m=885, launch_id=whmy5biw44s3, gps_elevation_m=0, humidity_percent=18.65999984741211, unix_time_s=1636560438, latitude_deg=0, flags=239, temperature_c=52.93000030517578}
2021-11-10T16:07:09.500 183291284 d26c40... addobs {pressure_hpa=910.5999755859375, longitude_deg=0, elevation2_m=886, launch_id=whmy5biw44s3, gps_elevation_m=0, humidity_percent=18.5, unix_time_s=1636560428, latitude_deg=0, flags=239, temperature_c=53.13999938964844}
2021-11-10T16:06:59.000 183291263 73d2bd... transfer amount: 0.00001 from: ascensionuyo {symbol=KANDA, quantity=0.00001000 KANDA, memo=, to=empatoempata}
2021-11-10T16:06:59.000 183291263 73d2bd... transfer amount: 0.1 from: ascensionuyo {symbol=TLOS, quantity=0.1000 TLOS, memo=Reached 910.599976 hpa, to=empatoempata}
2021-11-10T16:06:59.000 183291263 73d2bd... addobs {pressure_hpa=910.5999755859375, longitude_deg=0, elevation2_m=886, launch_id=whmy5biw44s3, gps_elevation_m=0, humidity_percent=18.229999542236328, unix_time_s=1636560418, latitude_deg=0, flags=239, temperature_c=53.47999954223633}
2021-11-10T16:06:54.000 183291253 0a2a70... transfer amount: 0.00000999 from: ascensionuyo {symbol=KANDA, quantity=0.00000999 KANDA, memo=, to=empatoempata}
2021-11-10T16:06:54.000 183291253 0a2a70... transfer amount: 0.0999 from: ascensionuyo {symbol=TLOS, quantity=0.0999 TLOS, memo=Reached 910.700012 hpa, to=empatoempata}
2021-11-10T16:06:54.000 183291253 0a2a70... addobs {pressure_hpa=910.7000122070312, longitude_deg=0, elevation2_m=885, launch_id=whmy5biw44s3, gps_elevation_m=0, humidity_percent=18.139999389648438, unix_time_s=1636560413, latitude_deg=0, flags=239, temperature_c=53.599998474121094}
2021-11-10T16:06:44.000 183291233 0985eb... transfer amount: 0.00002 from: ascensionuyo {symbol=KANDA, quantity=0.00002000 KANDA, memo=, to=empatoempata}
2021-11-10T16:06:44.000 183291233 0985eb... transfer amount: 0.2 from: ascensionuyo {symbol=TLOS, quantity=0.2000 TLOS, memo=Reached 910.799988 hpa, to=empatoempata}
2021-11-10T16:06:44.000 183291233 0985eb... addobs {pressure_hpa=910.7999877929688, longitude_deg=0, elevation2_m=884, launch_id=whmy5biw44s3, gps_elevation_m=0, humidity_percent=18.219999313354492, unix_time_s=1636560403, latitude_deg=0, flags=239, temperature_c=53.54999923706055}
2021-11-10T16:06:34.500 183291214 18abdf... transfer amount: 0.00002999 from: ascensionuyo {symbol=KANDA, quantity=0.00002999 KANDA, memo=, to=empatoempata}
2021-11-10T16:06:34.500 183291214 18abdf... transfer amount: 0.2999 from: ascensionuyo {symbol=TLOS, quantity=0.2999 TLOS, memo=Reached 911.000000 hpa, to=empatoempata}
2021-11-10T16:06:34.500 183291214 18abdf... addobs {pressure_hpa=911, longitude_deg=0, elevation2_m=882, launch_id=whmy5biw44s3, gps_elevation_m=0, humidity_percent=18.239999771118164, unix_time_s=1636560393, latitude_deg=0, flags=239, temperature_c=53.59000015258789}
2021-11-10T16:06:24.000 183291193 0dfb40... transfer amount: 0.00004 from: ascensionuyo {symbol=KANDA, quantity=0.00004000 KANDA, memo=, to=empatoempata}
2021-11-10T16:06:24.000 183291193 0dfb40... transfer amount: 0.4 from: ascensionuyo {symbol=TLOS, quantity=0.4000 TLOS, memo=Reached 911.299988 hpa, to=empatoempata}
2021-11-10T16:06:24.000 183291193 0dfb40... addobs {pressure_hpa=911.2999877929688, longitude_deg=0, elevation2_m=878, launch_id=whmy5biw44s3, gps_elevation_m=0, humidity_percent=18.84000015258789, unix_time_s=1636560383, latitude_deg=0, flags=239, temperature_c=52.9900016784668}